createdAt,value
2023-04-24T00:00:15.871Z,46.10
2023-04-24T00:02:51.826Z,46.00
2023-04-24T00:05:25.810Z,46.10
2023-04-24T00:07:58.894Z,46.00
2023-04-24T00:10:32.185Z,45.90
2023-04-24T00:13:05.594Z,45.90
2023-04-24T00:15:38.834Z,45.90
2023-04-24T00:18:13.379Z,45.70
2023-04-24T00:20:47.777Z,45.80
2023-04-24T00:23:21.046Z,45.70
2023-04-24T00:25:54.276Z,45.60
2023-04-24T00:28:27.467Z,45.60
2023-04-24T00:31:00.651Z,45.60
2023-04-24T00:33:35.254Z,45.60
2023-04-24T00:36:09.381Z,45.60
2023-04-24T00:38:42.576Z,45.50
2023-04-24T00:41:15.901Z,45.60
2023-04-24T00:43:49.260Z,45.50
2023-04-24T00:46:23.273Z,45.50
2023-04-24T00:48:58.617Z,45.40
2023-04-24T00:51:31.878Z,45.30
2023-04-24T00:54:05.168Z,45.20
2023-04-24T00:56:38.520Z,45.20
2023-04-24T00:59:12.027Z,45.20
2023-04-24T01:01:46.595Z,45.10
2023-04-24T01:04:21.507Z,45.10
2023-04-24T01:06:56.685Z,45.00
2023-04-24T01:09:29.922Z,45.00
2023-04-24T01:12:05.110Z,45.00
2023-04-24T01:14:39.239Z,44.90
2023-04-24T01:17:12.804Z,44.90
2023-04-24T01:19:47.337Z,44.90
2023-04-24T01:22:22.411Z,44.90
2023-04-24T01:24:55.985Z,44.80
2023-04-24T01:27:29.213Z,44.90
2023-04-24T01:30:02.459Z,44.80
2023-04-24T01:32:39.229Z,44.80
2023-04-24T01:35:12.663Z,44.90
2023-04-24T01:37:47.462Z,44.80
2023-04-24T01:40:20.762Z,44.80
2023-04-24T01:42:54.495Z,44.70
2023-04-24T01:45:27.644Z,44.70
2023-04-24T01:48:02.228Z,44.70
2023-04-24T01:50:35.804Z,44.70
2023-04-24T01:53:12.449Z,44.70
2023-04-24T01:55:45.709Z,44.70
2023-04-24T01:58:20.225Z,44.60
2023-04-24T02:00:53.498Z,44.70
2023-04-24T02:03:28.172Z,44.70
2023-04-24T02:06:03.698Z,44.70
2023-04-24T02:08:39.252Z,44.70
2023-04-24T02:11:13.388Z,44.70
2023-04-24T02:13:46.630Z,44.60
2023-04-24T02:16:19.983Z,44.60
2023-04-24T02:18:53.214Z,44.60
2023-04-24T02:21:26.442Z,45.20
2023-04-24T02:24:01.022Z,44.50
2023-04-24T02:26:34.245Z,44.40
2023-04-24T02:29:07.439Z,44.40
2023-04-24T02:31:40.792Z,44.30
2023-04-24T02:34:13.979Z,44.30
2023-04-24T02:36:47.173Z,44.30
2023-04-24T02:39:23.280Z,44.30
2023-04-24T02:41:56.488Z,44.20
2023-04-24T02:44:29.713Z,44.20
2023-04-24T02:47:02.909Z,44.20
2023-04-24T02:49:37.558Z,44.20
2023-04-24T02:52:11.433Z,44.10
2023-04-24T02:54:46.078Z,44.10
2023-04-24T02:57:19.389Z,44.10
2023-04-24T02:59:52.672Z,44.10
2023-04-24T03:02:26.130Z,44.10
2023-04-24T03:04:59.529Z,44.10
2023-04-24T03:07:33.298Z,44.10
2023-04-24T03:10:08.716Z,44.60
2023-04-24T03:12:41.984Z,44.10
2023-04-24T03:15:15.232Z,44.10
2023-04-24T03:17:49.098Z,44.00
2023-04-24T03:20:22.708Z,43.90
2023-04-24T03:22:55.963Z,43.90
2023-04-24T03:25:30.587Z,44.10
2023-04-24T03:28:04.085Z,43.90
2023-04-24T03:30:52.238Z,44.50
2023-04-24T03:33:26.666Z,44.40
2023-04-24T03:36:09.459Z,43.80
2023-04-24T03:38:46.323Z,43.70
2023-04-24T03:41:50.480Z,43.70
2023-04-24T03:44:28.999Z,43.50
2023-04-24T03:47:02.209Z,43.50
2023-04-24T03:49:35.515Z,43.50
2023-04-24T03:52:09.201Z,43.40
2023-04-24T03:54:42.753Z,43.40
2023-04-24T03:57:17.462Z,43.40
2023-04-24T04:00:02.649Z,43.40
2023-04-24T04:02:36.970Z,43.40
2023-04-24T04:05:10.805Z,43.30
2023-04-24T04:07:44.050Z,43.20
2023-04-24T04:10:18.273Z,43.20
2023-04-24T04:12:52.854Z,43.30
2023-04-24T04:15:26.081Z,43.10
2023-04-24T04:17:59.377Z,43.20
2023-04-24T04:20:32.613Z,43.30
2023-04-24T04:23:06.252Z,43.20
2023-04-24T04:25:48.908Z,43.20
2023-04-24T04:28:25.679Z,43.20
2023-04-24T04:30:59.535Z,43.20
2023-04-24T04:33:33.065Z,43.30
2023-04-24T04:36:06.492Z,43.20
2023-04-24T04:38:46.546Z,43.50
2023-04-24T04:41:50.007Z,43.20
2023-04-24T04:44:27.624Z,43.30
2023-04-24T04:47:04.891Z,43.30
2023-04-24T04:49:40.693Z,43.20
2023-04-24T04:52:20.016Z,43.20
2023-04-24T04:54:57.570Z,43.20
2023-04-24T04:57:37.771Z,43.10
2023-04-24T05:00:14.922Z,43.10
2023-04-24T05:02:54.721Z,43.20
2023-04-24T05:05:29.640Z,43.20
2023-04-24T05:08:04.489Z,43.00
2023-04-24T05:10:39.091Z,43.10
2023-04-24T05:13:14.064Z,43.20
2023-04-24T05:15:49.191Z,43.20
2023-04-24T05:18:22.655Z,43.10
2023-04-24T05:20:56.647Z,43.00
2023-04-24T05:23:31.401Z,43.10
2023-04-24T05:26:07.414Z,43.70
2023-04-24T05:28:41.845Z,43.20
2023-04-24T05:31:19.558Z,43.30
2023-04-24T05:33:52.820Z,43.40
2023-04-24T05:36:26.229Z,43.50
2023-04-24T05:38:59.678Z,43.60
2023-04-24T05:41:32.890Z,43.60
2023-04-24T05:44:06.294Z,43.70
2023-04-24T05:46:40.964Z,43.90
2023-04-24T05:49:15.139Z,44.00
2023-04-24T05:51:48.401Z,44.10
2023-04-24T05:54:23.079Z,44.10
2023-04-24T05:56:56.973Z,44.20
2023-04-24T05:59:41.165Z,44.70
2023-04-24T06:02:16.298Z,45.60
2023-04-24T06:04:49.611Z,45.60
2023-04-24T06:07:24.531Z,45.60
2023-04-24T06:09:57.906Z,45.50
2023-04-24T06:12:31.571Z,45.30
2023-04-24T06:15:10.197Z,45.00
2023-04-24T06:18:03.721Z,44.80
2023-04-24T06:20:37.242Z,45.30
2023-04-24T06:23:10.588Z,44.70
2023-04-24T06:25:43.898Z,44.70
2023-04-24T06:28:18.762Z,44.60
2023-04-24T06:30:51.966Z,44.40
2023-04-24T06:33:26.613Z,44.30
2023-04-24T06:35:59.882Z,44.30
2023-04-24T06:38:33.085Z,44.50
2023-04-24T06:41:06.710Z,44.80
2023-04-24T06:43:39.906Z,45.10
2023-04-24T06:46:13.203Z,45.00
2023-04-24T06:48:47.885Z,44.90
2023-04-24T06:51:21.053Z,44.80
2023-04-24T06:53:54.934Z,44.70
2023-04-24T06:56:29.839Z,44.70
2023-04-24T06:59:03.043Z,44.60
2023-04-24T07:01:36.330Z,44.50
2023-04-24T07:04:11.093Z,44.40
2023-04-24T07:06:44.533Z,44.40
2023-04-24T07:09:19.347Z,44.60
2023-04-24T07:11:53.053Z,45.00
2023-04-24T07:14:26.517Z,45.00
2023-04-24T07:16:59.791Z,45.00
2023-04-24T07:19:36.296Z,44.90
2023-04-24T07:22:09.518Z,44.80
2023-04-24T07:24:42.767Z,44.80
2023-04-24T07:27:16.373Z,44.60
2023-04-24T07:29:49.867Z,44.60
2023-04-24T07:32:23.350Z,44.40
2023-04-24T07:34:58.195Z,44.40
2023-04-24T07:37:31.482Z,44.20
2023-04-24T07:40:05.394Z,41.40
2023-04-24T07:42:39.269Z,40.70
2023-04-24T07:45:12.563Z,41.20
2023-04-24T07:47:46.681Z,41.60
2023-04-24T07:50:21.821Z,41.80
2023-04-24T07:52:55.034Z,42.00
2023-04-24T07:55:28.503Z,42.40
2023-04-24T07:58:01.796Z,42.50
2023-04-24T08:00:35.198Z,42.50
2023-04-24T08:03:08.623Z,42.60
2023-04-24T08:05:44.166Z,42.70
2023-04-24T08:08:17.508Z,42.70
2023-04-24T08:10:50.908Z,42.10
2023-04-24T08:13:24.335Z,41.60
2023-04-24T08:15:59.013Z,41.20
2023-04-24T08:18:32.724Z,41.30
2023-04-24T08:21:07.847Z,41.30
2023-04-24T08:23:41.064Z,41.10
2023-04-24T08:26:14.838Z,41.00
2023-04-24T08:28:48.071Z,40.80
2023-04-24T08:31:21.464Z,40.70
2023-04-24T08:33:54.867Z,40.60
2023-04-24T08:36:43.539Z,40.50
2023-04-24T08:39:19.956Z,40.70
2023-04-24T08:41:54.112Z,40.60
2023-04-24T08:44:27.455Z,40.50
2023-04-24T08:47:01.266Z,40.60
2023-04-24T08:49:35.160Z,40.70
2023-04-24T08:52:10.242Z,40.60
2023-04-24T08:54:46.515Z,40.50
2023-04-24T08:57:20.397Z,40.40
2023-04-24T08:59:54.720Z,40.40
2023-04-24T09:02:28.375Z,40.30
2023-04-24T09:05:02.396Z,40.50
2023-04-24T09:07:38.132Z,41.40
2023-04-24T09:10:11.962Z,40.80
2023-04-24T09:12:47.057Z,41.30
2023-04-24T09:15:21.441Z,41.70
2023-04-24T09:17:54.764Z,41.90
2023-04-24T09:20:28.056Z,41.50
2023-04-24T09:23:02.729Z,41.20
2023-04-24T09:25:37.408Z,41.00
2023-04-24T09:28:10.752Z,41.10
2023-04-24T09:30:43.915Z,41.10
2023-04-24T09:33:17.867Z,40.90
2023-04-24T09:35:51.992Z,40.70
2023-04-24T09:38:35.225Z,40.50
2023-04-24T09:41:10.841Z,40.10
2023-04-24T09:43:44.048Z,39.80
2023-04-24T09:46:22.408Z,39.40
2023-04-24T09:48:56.019Z,39.10
2023-04-24T09:51:37.372Z,38.90
2023-04-24T09:54:18.231Z,38.60
2023-04-24T09:56:52.752Z,38.60
2023-04-24T09:59:25.967Z,38.90
2023-04-24T10:02:00.109Z,39.00
2023-04-24T10:04:33.532Z,39.00
2023-04-24T10:07:10.173Z,39.00
2023-04-24T10:09:45.097Z,39.20
2023-04-24T10:12:18.525Z,39.20
2023-04-24T10:14:52.544Z,39.20
2023-04-24T10:17:27.823Z,39.20
2023-04-24T10:20:02.603Z,39.10
2023-04-24T10:22:35.931Z,39.40
2023-04-24T10:25:12.087Z,39.60
2023-04-24T10:27:45.315Z,39.80
2023-04-24T10:30:19.560Z,39.60
2023-04-24T10:32:52.847Z,39.60
2023-04-24T10:35:27.848Z,39.80
2023-04-24T10:38:05.145Z,39.90
2023-04-24T10:40:39.937Z,39.60
2023-04-24T10:43:18.780Z,39.60
2023-04-24T10:46:05.940Z,39.60
2023-04-24T10:48:45.247Z,39.80
2023-04-24T10:51:18.584Z,40.30
2023-04-24T10:53:52.347Z,39.50
2023-04-24T10:56:27.053Z,39.80
2023-04-24T10:59:00.465Z,40.20
2023-04-24T11:01:34.514Z,39.80
2023-04-24T11:04:07.919Z,39.80
2023-04-24T11:06:44.332Z,39.70
2023-04-24T11:09:17.732Z,39.50
2023-04-24T11:11:52.262Z,39.90
2023-04-24T11:14:25.517Z,39.60
2023-04-24T11:16:59.071Z,39.50
2023-04-24T11:19:32.375Z,39.80
2023-04-24T11:22:06.875Z,39.60
2023-04-24T11:24:41.750Z,39.70
2023-04-24T11:27:25.409Z,39.70
2023-04-24T11:30:02.842Z,39.70
2023-04-24T11:32:40.490Z,39.60
2023-04-24T11:35:17.369Z,39.60
2023-04-24T11:40:28.424Z,39.60
2023-04-24T11:43:03.295Z,39.70
2023-04-24T11:45:36.703Z,39.70
2023-04-24T11:48:10.016Z,40.10
2023-04-24T11:50:49.094Z,40.30
2023-04-24T11:53:23.083Z,40.30
2023-04-24T11:55:56.331Z,40.30
2023-04-24T11:58:36.956Z,40.40
2023-04-24T12:01:10.251Z,40.60
2023-04-24T12:03:45.453Z,40.80
2023-04-24T12:06:20.079Z,40.90
2023-04-24T12:09:01.580Z,41.00
2023-04-24T12:11:37.813Z,40.80
2023-04-24T12:14:15.508Z,40.80
2023-04-24T12:16:50.235Z,40.90
2023-04-24T12:19:24.006Z,40.80
2023-04-24T12:22:03.951Z,40.00
2023-04-24T12:24:37.213Z,41.10
2023-04-24T12:27:21.599Z,40.50
2023-04-24T12:29:58.930Z,40.90
2023-04-24T12:32:32.192Z,41.30
2023-04-24T12:35:08.069Z,41.50
2023-04-24T12:37:47.100Z,42.10
2023-04-24T12:40:22.225Z,42.50
2023-04-24T12:42:57.672Z,44.10
2023-04-24T12:45:32.792Z,45.40
2023-04-24T12:48:06.437Z,44.50
2023-04-24T12:50:40.735Z,44.60
2023-04-24T12:53:13.947Z,44.40
2023-04-24T12:55:48.019Z,44.70
2023-04-24T12:58:22.049Z,44.80
2023-04-24T13:00:56.754Z,44.60
2023-04-24T13:03:30.264Z,44.70
2023-04-24T13:06:03.649Z,44.80
2023-04-24T13:08:36.829Z,44.80
2023-04-24T13:11:10.093Z,44.80
2023-04-24T13:13:43.543Z,44.70
2023-04-24T13:16:18.401Z,44.70
2023-04-24T13:18:51.674Z,44.80
2023-04-24T13:21:24.940Z,44.80
2023-04-24T13:23:58.205Z,44.90
2023-04-24T13:26:31.545Z,45.00
2023-04-24T13:29:05.281Z,45.10
2023-04-24T13:31:39.919Z,45.20
2023-04-24T13:34:13.334Z,45.30
2023-04-24T13:36:47.023Z,45.50
2023-04-24T13:39:20.280Z,45.40
2023-04-24T13:41:53.691Z,45.40
2023-04-24T13:44:27.861Z,45.80
2023-04-24T13:47:02.486Z,46.00
2023-04-24T13:49:36.227Z,46.30
2023-04-24T13:52:11.357Z,46.30
2023-04-24T13:54:44.625Z,46.30
2023-04-24T13:57:18.368Z,46.50
2023-04-24T13:59:52.078Z,46.50
2023-04-24T14:02:26.980Z,46.50
2023-04-24T14:05:00.581Z,46.50
2023-04-24T14:07:34.058Z,47.30
2023-04-24T14:10:08.112Z,46.90
2023-04-24T14:12:41.506Z,46.90
2023-04-24T14:15:15.177Z,46.90
2023-04-24T14:17:50.123Z,47.00
2023-04-24T14:20:23.368Z,47.00
2023-04-24T14:22:59.553Z,47.00
2023-04-24T14:25:32.824Z,46.90
2023-04-24T14:28:07.604Z,46.80
2023-04-24T14:30:41.789Z,46.70
2023-04-24T14:33:17.123Z,46.70
2023-04-24T14:35:51.247Z,46.50
2023-04-24T14:38:24.825Z,46.40
2023-04-24T14:41:07.278Z,47.20
2023-04-24T14:43:41.959Z,46.50
2023-04-24T14:46:15.234Z,47.30
2023-04-24T14:48:49.897Z,48.30
2023-04-24T14:51:23.202Z,48.70
2023-04-24T14:53:56.490Z,48.90
2023-04-24T14:56:29.724Z,48.60
2023-04-24T14:59:03.073Z,48.50
2023-04-24T15:01:36.281Z,48.10
2023-04-24T15:04:10.975Z,47.90
2023-04-24T15:06:44.424Z,47.70
2023-04-24T15:09:17.684Z,47.60
2023-04-24T15:11:51.232Z,47.50
2023-04-24T15:14:24.420Z,47.40
2023-04-24T15:16:57.749Z,47.40
2023-04-24T15:19:34.144Z,47.70
2023-04-24T15:22:07.363Z,47.70
2023-04-24T15:24:40.615Z,47.60
2023-04-24T15:27:14.069Z,47.50
2023-04-24T15:29:47.259Z,47.30
2023-04-24T15:32:20.508Z,47.30
2023-04-24T15:35:07.002Z,47.40
2023-04-24T15:37:43.072Z,47.30
2023-04-24T15:40:16.767Z,47.20
2023-04-24T15:42:49.806Z,47.20
2023-04-24T15:45:23.017Z,47.00
2023-04-24T15:47:56.307Z,46.90
2023-04-24T15:50:30.824Z,46.80
2023-04-24T15:53:04.016Z,46.60
2023-04-24T15:55:37.364Z,46.50
2023-04-24T15:58:10.623Z,46.20
2023-04-24T16:00:43.864Z,45.90
2023-04-24T16:03:17.306Z,45.90
2023-04-24T16:05:52.094Z,45.90
2023-04-24T16:08:25.142Z,45.90
2023-04-24T16:10:58.738Z,45.90
2023-04-24T16:13:34.359Z,45.80
2023-04-24T16:16:07.913Z,45.60
2023-04-24T16:18:41.169Z,45.50
2023-04-24T16:21:15.786Z,45.50
2023-04-24T16:23:49.078Z,45.60
2023-04-24T16:26:22.478Z,45.70
2023-04-24T16:28:55.877Z,45.80
2023-04-24T16:31:29.144Z,45.90
2023-04-24T16:34:02.510Z,45.80
2023-04-24T16:36:37.208Z,45.70
2023-04-24T16:39:10.867Z,45.80
2023-04-24T16:41:44.182Z,45.90
2023-04-24T16:44:19.212Z,45.40
2023-04-24T16:46:52.757Z,45.10
2023-04-24T16:49:30.926Z,45.00
2023-04-24T16:52:05.869Z,45.00
2023-04-24T16:54:39.284Z,45.00
2023-04-24T16:57:12.534Z,44.90
2023-04-24T16:59:45.969Z,44.70
2023-04-24T17:02:19.282Z,44.60
2023-04-24T17:04:52.503Z,44.60
2023-04-24T17:07:27.177Z,44.50
2023-04-24T17:10:00.434Z,44.30
2023-04-24T17:12:33.633Z,44.10
2023-04-24T17:15:08.109Z,44.00
2023-04-24T17:17:42.644Z,44.00
2023-04-24T17:20:22.767Z,43.80
2023-04-24T17:22:58.101Z,43.80
2023-04-24T17:25:31.308Z,43.60
2023-04-24T17:28:05.131Z,44.10
2023-04-24T17:30:38.348Z,43.50
2023-04-24T17:33:11.578Z,43.40
2023-04-24T17:35:44.921Z,43.30
2023-04-24T17:38:19.959Z,43.20
2023-04-24T17:40:53.382Z,43.30
2023-04-24T17:43:27.117Z,43.40
2023-04-24T17:46:00.666Z,43.40
2023-04-24T17:48:33.956Z,43.60
2023-04-24T17:51:07.146Z,43.70
2023-04-24T17:53:41.998Z,43.60
2023-04-24T17:56:15.543Z,43.40
2023-04-24T17:58:49.081Z,43.40
2023-04-24T18:01:24.158Z,43.30
2023-04-24T18:03:57.798Z,43.40
2023-04-24T18:06:31.464Z,43.20
2023-04-24T18:09:06.417Z,43.30
2023-04-24T18:11:39.645Z,43.30
2023-04-24T18:14:12.882Z,43.30
2023-04-24T18:16:46.122Z,43.20
2023-04-24T18:19:19.327Z,44.10
2023-04-24T18:21:52.507Z,43.80
2023-04-24T18:24:27.346Z,44.00
2023-04-24T18:27:01.671Z,44.50
2023-04-24T18:29:34.936Z,44.70
2023-04-24T18:32:08.299Z,44.80
2023-04-24T18:34:41.587Z,45.00
2023-04-24T18:37:14.950Z,45.00
2023-04-24T18:39:50.614Z,45.00
2023-04-24T18:42:24.164Z,45.10
2023-04-24T18:45:01.250Z,45.10
2023-04-24T18:47:34.660Z,45.00
2023-04-24T18:50:08.720Z,44.80
2023-04-24T18:52:42.030Z,44.70
2023-04-24T18:55:16.912Z,44.50
2023-04-24T18:57:50.193Z,44.30
2023-04-24T19:00:23.649Z,44.20
2023-04-24T19:02:56.961Z,44.00
2023-04-24T19:05:30.342Z,43.90
2023-04-24T19:08:03.544Z,43.80
2023-04-24T19:10:38.217Z,43.60
2023-04-24T19:13:11.453Z,43.60
2023-04-24T19:15:44.636Z,43.60
2023-04-24T19:18:18.096Z,43.70
2023-04-24T19:20:51.395Z,45.00
2023-04-24T19:23:25.021Z,45.00
2023-04-24T19:25:59.581Z,44.70
2023-04-24T19:28:32.870Z,44.50
2023-04-24T19:31:10.271Z,45.30
2023-04-24T19:33:43.528Z,46.00
2023-04-24T19:36:17.750Z,46.30
2023-04-24T19:38:51.621Z,46.20
2023-04-24T19:41:26.462Z,46.00
2023-04-24T19:43:59.753Z,46.40
2023-04-24T19:46:33.626Z,46.60
2023-04-24T19:49:07.014Z,46.60
2023-04-24T19:51:40.281Z,45.90
2023-04-24T19:54:13.847Z,45.40
2023-04-24T19:56:48.836Z,45.50
2023-04-24T19:59:22.050Z,45.70
2023-04-24T20:01:55.522Z,45.80
2023-04-24T20:04:28.969Z,45.80
2023-04-24T20:07:02.391Z,45.90
2023-04-24T20:09:35.668Z,45.90
2023-04-24T20:12:10.316Z,46.10
2023-04-24T20:14:43.666Z,46.10
2023-04-24T20:17:17.502Z,46.30
2023-04-24T20:19:50.758Z,46.30
2023-04-24T20:22:24.064Z,46.30
2023-04-24T20:24:57.343Z,46.20
2023-04-24T20:27:31.955Z,46.40
2023-04-24T20:30:06.413Z,46.40
2023-04-24T20:32:40.368Z,46.30
2023-04-24T20:35:13.696Z,46.10
2023-04-24T20:37:46.891Z,46.10
2023-04-24T20:40:20.227Z,46.10
2023-04-24T20:42:56.064Z,46.10
2023-04-24T20:45:29.618Z,46.00
2023-04-24T20:48:02.881Z,46.50
2023-04-24T20:50:40.515Z,45.90
2023-04-24T20:53:15.157Z,45.90
2023-04-24T20:55:48.629Z,46.00
2023-04-24T20:58:23.924Z,45.90
2023-04-24T21:00:57.221Z,46.00
2023-04-24T21:03:30.597Z,46.00
2023-04-24T21:06:03.979Z,45.90
2023-04-24T21:08:37.807Z,45.80
2023-04-24T21:11:10.870Z,45.80
2023-04-24T21:13:45.662Z,45.80
2023-04-24T21:16:18.979Z,45.80
2023-04-24T21:18:52.280Z,45.80
2023-04-24T21:21:25.859Z,45.80
2023-04-24T21:23:59.086Z,45.80
2023-04-24T21:26:32.368Z,45.80
2023-04-24T21:29:07.037Z,45.70
2023-04-24T21:31:40.410Z,45.70
2023-04-24T21:34:13.710Z,45.70
2023-04-24T21:36:47.802Z,45.70
2023-04-24T21:39:21.096Z,45.70
2023-04-24T21:41:54.433Z,45.60
2023-04-24T21:44:29.000Z,45.70
2023-04-24T21:47:02.425Z,45.70
2023-04-24T21:49:35.711Z,45.70
2023-04-24T21:52:09.006Z,45.60
2023-04-24T21:54:42.218Z,45.70
2023-04-24T21:57:15.814Z,45.70
2023-04-24T21:59:50.516Z,45.70
2023-04-24T22:02:23.853Z,45.70
2023-04-24T22:04:57.456Z,45.70
2023-04-24T22:07:30.823Z,45.80
2023-04-24T22:10:05.252Z,45.80
2023-04-24T22:12:39.060Z,45.80
2023-04-24T22:15:13.777Z,45.80
2023-04-24T22:17:47.156Z,45.80
2023-04-24T22:20:21.592Z,45.70
2023-04-24T22:22:54.795Z,45.70
2023-04-24T22:25:27.972Z,45.90
2023-04-24T22:28:01.269Z,45.90
2023-04-24T22:30:35.812Z,46.00
2023-04-24T22:33:09.148Z,46.00
2023-04-24T22:35:42.606Z,45.90
2023-04-24T22:38:15.996Z,46.00
2023-04-24T22:40:49.245Z,46.00
2023-04-24T22:43:22.408Z,46.00
2023-04-24T22:45:56.987Z,46.00
2023-04-24T22:48:30.170Z,46.00
2023-04-24T22:51:03.596Z,46.00
2023-04-24T22:53:37.016Z,46.00
2023-04-24T22:56:10.251Z,46.00
2023-04-24T22:58:43.571Z,45.90
2023-04-24T23:01:18.340Z,46.00
2023-04-24T23:03:51.911Z,46.00
2023-04-24T23:06:25.987Z,46.10
2023-04-24T23:08:59.059Z,46.00
2023-04-24T23:11:32.466Z,46.00
2023-04-24T23:14:05.677Z,45.90
2023-04-24T23:16:42.692Z,46.00
2023-04-24T23:19:16.060Z,46.00
2023-04-24T23:21:50.372Z,45.90
2023-04-24T23:24:24.287Z,45.90
2023-04-24T23:26:57.587Z,46.00
2023-04-24T23:29:30.750Z,46.50
2023-04-24T23:32:05.732Z,45.90
2023-04-24T23:34:39.418Z,45.90
2023-04-24T23:37:13.020Z,45.90
2023-04-24T23:39:46.225Z,45.90
2023-04-24T23:42:19.399Z,45.80
2023-04-24T23:44:52.569Z,46.40
2023-04-24T23:47:27.156Z,45.70
2023-04-24T23:50:00.403Z,45.80
2023-04-24T23:52:35.340Z,45.70
2023-04-24T23:55:09.743Z,45.80
2023-04-24T23:57:42.979Z,45.70
